Latest Weather Observations for Ballina

IDN60801

Issued at 1:03 pm EDT Tuesday 21 November 2017 (issued every 30 minutes, with the page automatically refreshed every 10 minutes)

About weather observations | Map of weather stations | Latest weather observations for NSW | Other Formats
Station Details ID: 058198 Name: BALLINA AIRPORT AWS Lat: -28.84 Lon: 153.56 Height: 1.3 m
Data from the previous 72 hours. | See also: Recent months at Ballina
Date/Time
EDT
Temp
°C
App
Temp
°C
Dew
Point
°C
Rel
Hum
%
Delta-T
°C
Wind Press
QNH
hPa
Press
MSL
hPa
Rain since
9am
mm
Dir  Spd
km/h
Gust
km/h
Spd
kts
Gust
kts
21/01:00pm 22.8 20.2 15.9 65 4.2 SE 24 32 13 17 1020.1 1020.1 8.2
21/12:30pm 21.9 20.0 16.6 72 3.2 SE 22 32 12 17 1020.4 1020.4 8.2
21/12:00pm 18.7 19.9 17.4 92 0.8 WNW 7 9 4 5 1020.6 1020.6 8.2
21/11:50am 18.7 20.1 17.7 94 0.6 NW 7 9 4 5 1020.7 1020.7 8.2
21/11:30am 18.0 19.6 17.0 94 0.6 SSE 4 9 2 5 1020.8 1020.8 7.6
21/11:12am 18.4 18.1 17.4 94 0.6 S 15 20 8 11 1021.0 1021.0 4.6
21/11:00am 18.5 18.0 17.9 96 0.4 S 17 22 9 12 1021.0 1021.0 4.6
21/10:54am 18.2 18.0 17.7 97 0.3 S 15 22 8 12 1021.1 1021.1 4.6
21/10:30am 17.5 16.2 16.7 95 0.5 SE 19 28 10 15 1021.3 1021.3 2.8
21/10:10am 18.3 14.8 16.5 89 1.1 ESE 30 44 16 24 1021.2 1021.2 0.2
21/10:00am 19.6 16.5 15.7 78 2.3 SE 26 43 14 23 1021.0 1021.0 0.0
21/09:30am 21.1 18.5 13.8 63 4.2 SE 20 28 11 15 1020.6 1020.6 0.0
21/09:00am 21.1 18.6 16.1 73 3.0 SE 24 35 13 19 1020.4 1020.4 30.6
21/08:30am 21.6 19.3 14.7 65 4.1 SE 20 30 11 16 1020.4 1020.4 30.6
21/08:00am 21.4 19.1 14.6 65 4.0 SSE 20 32 11 17 1020.1 1020.1 30.6
21/07:30am 20.4 17.5 14.1 67 3.6 SE 22 28 12 15 1019.8 1019.8 30.6
21/07:00am 20.6 18.3 14.0 66 3.8 SE 19 26 10 14 1019.7 1019.7 30.6
21/06:30am 20.3 18.4 14.2 68 3.5 SE 17 24 9 13 1019.4 1019.4 30.6
21/06:00am 19.5 17.4 13.7 69 3.3 SE 17 24 9 13 1019.1 1019.1 30.6
21/05:30am 19.4 17.4 14.0 71 3.1 SE 17 24 9 13 1018.7 1018.7 30.6
21/05:00am 19.1 17.0 13.7 71 3.1 SE 17 22 9 12 1018.5 1018.5 30.6
21/04:30am 19.4 17.3 13.6 69 3.3 SSE 17 20 9 11 1018.7 1018.7 30.6
21/04:00am 19.3 17.6 13.7 70 3.2 SSE 15 24 8 13 1018.7 1018.7 30.6
21/03:30am 19.5 17.6 14.3 72 3.0 SSE 17 24 9 13 1018.6 1018.6 30.6
21/03:00am 19.5 17.4 13.7 69 3.3 SSE 17 24 9 13 1018.8 1018.8 30.6
21/02:30am 19.6 16.3 12.8 65 3.8 SSE 22 33 12 18 1019.1 1019.1 30.6
21/02:00am 19.5 16.6 13.0 66 3.7 SSE 20 32 11 17 1019.3 1019.3 30.6
21/01:30am 19.7 17.1 13.9 69 3.3 SSE 20 33 11 18 1019.6 1019.6 30.6
21/01:00am 19.8 17.2 13.7 68 3.5 SE 20 32 11 17 1020.0 1020.0 30.6
21/12:30am 19.9 17.3 13.8 68 3.5 SE 20 28 11 15 1020.2 1020.2 30.6
21/12:00am 19.8 17.5 14.2 70 3.2 SE 19 30 10 16 1020.5 1020.5 30.6
 
Date/Time
EDT
Temp
°C
App
Temp
°C
Dew
Point
°C
Rel
Hum
%
Delta-T
°C
Wind Press
QNH
hPa
Press
MSL
hPa
Rain since
9am
mm
Dir  Spd
km/h
Gust
km/h
Spd
kts
Gust
kts
20/11:30pm 19.9 16.5 13.8 68 3.5 SE 24 32 13 17 1020.6 1020.6 30.6
20/11:00pm 19.9 17.1 14.3 70 3.2 SE 22 35 12 19 1020.6 1020.6 30.6
20/10:30pm 19.7 17.5 14.5 72 3.0 SE 19 28 10 15 1020.7 1020.7 30.6
20/10:00pm 19.5 18.4 15.2 76 2.5 SE 15 20 8 11 1020.8 1020.8 30.6
20/09:30pm 19.6 17.7 15.3 76 2.5 SE 19 24 10 13 1020.7 1020.7 30.6
20/09:00pm 19.6 18.5 16.4 82 1.9 SE 17 22 9 12 1020.5 1020.5 30.6
20/08:30pm 17.7 18.4 16.2 91 0.9 SSW 7 9 4 5 1020.5 1020.5 30.6
20/08:00pm 18.0 18.6 15.3 84 1.6 E 6 11 3 6 1020.4 1020.4 30.4
20/07:56pm 18.1 18.1 15.2 83 1.7 E 9 15 5 8 1020.4 1020.4 30.4
20/07:44pm 18.2 16.9 15.8 86 1.4 ESE 17 22 9 12 1020.4 1020.4 30.4
20/07:30pm 19.5 17.9 16.0 80 2.1 SE 19 26 10 14 1020.4 1020.4 30.0
20/07:00pm 19.9 18.9 15.5 76 2.6 SE 15 22 8 12 1020.1 1020.1 30.0
20/06:30pm 19.6 19.7 16.4 82 1.9 SSE 11 19 6 10 1019.9 1019.9 30.0
20/06:00pm 19.8 20.7 17.6 87 1.3 SE 9 13 5 7 1019.7 1019.7 29.8
20/05:50pm 19.1 19.4 16.9 87 1.3 SE 11 17 6 9 1019.7 1019.7 29.8
20/05:30pm 18.9 17.3 16.1 84 1.7 SE 19 35 10 19 1019.7 1019.7 29.2
20/05:29pm 19.3 17.9 16.5 84 1.7 SE 19 35 10 19 1019.8 1019.8 29.0
20/05:00pm 19.9 20.2 17.1 84 1.7 SSE 11 15 6 8 1019.8 1019.8 28.2
20/04:56pm 19.6 20.0 17.2 86 1.5 SSE 11 15 6 8 1019.8 1019.8 28.2
20/04:45pm 18.6 16.1 16.2 86 1.4 SSE 24 43 13 23 1019.9 1019.9 28.0
20/04:30pm 21.9 19.7 14.8 64 4.2 SSE 20 28 11 15 1019.8 1019.8 27.6
20/04:00pm 21.5 18.8 14.6 65 4.0 SSE 22 28 12 15 1019.9 1019.9 27.6
20/03:30pm 22.0 20.2 14.4 62 4.5 SE 17 28 9 15 1019.9 1019.9 27.6
20/03:00pm 21.6 20.1 16.8 74 2.9 SE 20 32 11 17 1020.0 1020.0 27.6
20/02:30pm 22.0 24.2 21.8 99 0.1 ESE 13 20 7 11 1020.3 1020.3 27.6
20/02:00pm 19.4 21.1 19.4 100 0.0 SSW 9 11 5 6 1020.6 1020.6 27.6
20/01:39pm 18.0 19.0 17.8 99 0.1 NNW 9 13 5 7 1021.0 1021.0 27.6
20/01:33pm 17.4 18.2 17.2 99 0.1 N 9 15 5 8 1021.1 1021.1 27.6
20/01:30pm 17.2 17.9 17.0 99 0.1 NNW 9 19 5 10 1021.2 1021.2 27.6
20/01:18pm 16.7 16.0 16.5 99 0.1 SSE 15 26 8 14 1021.3 1021.3 25.6
20/01:00pm 18.0 16.9 17.2 95 0.5 SE 19 32 10 17 1021.3 1021.3 6.4
20/12:52pm 18.5 14.9 16.3 87 1.3 SE 30 44 16 24 1021.3 1021.3 1.6
20/12:32pm 21.0 17.6 15.8 72 3.1 SSE 28 52 15 28 1020.9 1020.9 0.0
20/12:30pm 22.3 19.6 15.6 66 4.0 SSE 24 41 13 22 1020.9 1020.9 0.0
20/12:00pm 23.1 20.1 14.7 59 5.0 SSE 24 32 13 17 1020.9 1020.9 0.0
20/11:30am 23.1 20.5 15.9 64 4.3 SSE 24 32 13 17 1020.9 1020.9 0.0
20/11:00am 23.8 20.4 15.8 61 4.8 SSE 28 35 15 19 1020.9 1020.9 0.0
20/10:30am 22.8 21.0 16.1 66 4.1 S 20 30 11 16 1020.9 1020.9 0.0
20/10:00am 23.3 21.1 15.9 63 4.5 SE 22 30 12 16 1020.7 1020.7 0.0
20/09:30am 21.1 20.0 15.4 70 3.4 SSE 15 30 8 16 1020.7 1020.7 0.0
20/09:00am 22.1 19.4 14.7 63 4.3 SSE 22 35 12 19 1020.6 1020.6 3.4
20/08:30am 22.6 20.7 15.2 63 4.4 SSE 19 28 10 15 1020.5 1020.5 3.4
20/08:00am 20.3 19.6 15.5 74 2.8 SW 13 20 7 11 1020.3 1020.3 3.4
20/07:30am 19.2 18.1 15.3 78 2.3 WSW 15 20 8 11 1020.1 1020.1 3.4
20/07:00am 17.5 16.7 15.0 85 1.4 W 13 15 7 8 1019.8 1019.8 3.4
20/06:30am 17.3 17.1 13.6 79 2.1 SW 7 13 4 7 1019.5 1019.5 3.4
20/06:00am 18.6 17.4 12.8 69 3.2 S 11 17 6 9 1019.1 1019.1 3.4
20/05:30am 18.7 17.1 12.7 68 3.4 S 13 19 7 10 1018.7 1018.7 3.4
20/05:00am 19.2 17.4 13.4 69 3.3 S 15 24 8 13 1018.6 1018.6 3.4
20/04:30am 19.0 17.3 13.6 71 3.1 SSE 15 24 8 13 1018.4 1018.4 3.4
20/04:00am 18.9 17.1 13.3 70 3.2 SSE 15 20 8 11 1018.5 1018.5 3.4
20/03:30am 19.1 17.0 13.5 70 3.2 SSE 17 24 9 13 1018.6 1018.6 3.4
20/03:00am 19.2 17.6 14.0 72 3.0 SSE 15 20 8 11 1018.6 1018.6 3.4
20/02:30am 18.9 17.2 13.7 72 3.0 SSE 15 24 8 13 1018.7 1018.7 3.4
20/02:00am 19.7 17.3 13.9 69 3.3 SE 19 26 10 14 1018.7 1018.7 3.4
20/01:30am 19.7 17.3 13.9 69 3.3 SSE 19 28 10 15 1019.3 1019.3 3.4
20/01:00am 19.6 17.6 15.0 75 2.7 SSE 19 28 10 15 1019.5 1019.5 3.4
20/12:30am 18.0 18.4 16.2 89 1.1 S 9 15 5 8 1019.7 1019.7 3.4
20/12:00am 17.7 17.5 16.6 93 0.7 SW 13 17 7 9 1020.0 1020.0 3.4
 
Date/Time
EDT
Temp
°C
App
Temp
°C
Dew
Point
°C
Rel
Hum
%
Delta-T
°C
Wind Press
QNH
hPa
Press
MSL
hPa
Rain since
9am
mm
Dir  Spd
km/h
Gust
km/h
Spd
kts
Gust
kts
19/11:30pm 16.8 18.2 16.5 98 0.2 S 4 9 2 5 1020.3 1020.3 3.4
19/11:09pm 16.2 16.7 15.6 96 0.3 SSW 7 13 4 7 1020.3 1020.3 3.4
19/11:00pm 16.1 15.4 15.5 96 0.3 SSW 13 20 7 11 1020.4 1020.4 3.4
19/10:35pm 17.5 14.9 16.0 91 0.9 SE 24 35 13 19 1020.6 1020.6 0.8
19/10:30pm 18.1 15.0 15.7 86 1.4 SE 26 35 14 19 1020.5 1020.5 0.2
19/10:00pm 18.8 17.6 15.1 79 2.2 ESE 15 22 8 12 1020.2 1020.2 0.2
19/09:30pm 17.9 18.9 16.8 93 0.7 WNW 7 13 4 7 1020.1 1020.1 0.2
19/09:00pm 18.0 18.9 16.2 89 1.1 ENE 6 9 3 5 1019.8 1019.8 0.2
19/08:30pm 18.9 18.5 16.3 85 1.6 E 13 20 7 11 1019.7 1019.7 0.0
19/08:00pm 19.3 18.2 15.2 77 2.4 ESE 15 20 8 11 1019.4 1019.4 0.0
19/07:30pm 18.9 18.7 15.6 81 1.9 S 11 19 6 10 1019.1 1019.1 0.0
19/07:00pm 21.3 19.8 14.2 64 4.1 SSE 15 24 8 13 1018.7 1018.7 0.0
19/06:30pm 21.6 19.6 14.0 62 4.4 SSE 17 22 9 12 1018.5 1018.5 0.0
19/06:00pm 22.5 20.2 14.1 59 4.9 SSE 19 24 10 13 1018.3 1018.3 0.0
19/05:30pm 22.5 20.7 14.4 60 4.8 SE 17 24 9 13 1018.3 1018.3 0.0
19/05:00pm 22.4 20.8 14.0 59 4.9 SE 15 22 8 12 1018.2 1018.2 0.0
19/04:30pm 22.2 20.1 13.5 57 5.0 ESE 17 24 9 13 1018.3 1018.3 0.0
19/04:00pm 23.0 20.6 13.8 56 5.4 ESE 19 28 10 15 1018.4 1018.4 0.0
19/03:30pm 22.9 20.0 12.8 53 5.8 ESE 20 32 11 17 1018.5 1018.5 0.0
19/03:00pm 23.7 20.7 13.8 53 5.8 ESE 22 32 12 17 1018.8 1018.8 0.0
19/02:30pm 24.0 21.0 14.7 56 5.5 ESE 24 33 13 18 1019.0 1019.0 0.0
19/02:00pm 23.5 20.1 13.7 54 5.7 ESE 24 33 13 18 1019.2 1019.2 0.0
19/01:30pm 23.7 20.3 13.8 53 5.8 SE 24 33 13 18 1019.4 1019.4 0.0
19/01:00pm 24.3 20.8 15.5 58 5.3 ESE 28 35 15 19 1019.6 1019.6 0.0
19/12:30pm 23.8 20.1 15.0 57 5.3 ESE 28 37 15 20 1019.6 1019.6 0.0
19/12:00pm 24.2 20.6 14.3 54 5.8 ESE 26 35 14 19 1019.7 1019.7 0.0
19/11:30am 23.8 19.7 14.8 57 5.4 ESE 30 39 16 21 1019.6 1019.6 0.0
19/11:00am 23.3 20.0 15.1 60 4.9 ESE 26 39 14 21 1019.6 1019.6 0.0
19/10:30am 22.8 20.7 16.1 66 4.1 E 22 37 12 20 1019.4 1019.4 0.0
19/10:00am 23.6 20.9 16.6 65 4.3 ESE 26 37 14 20 1019.2 1019.2 0.0
19/09:30am 23.0 20.7 15.6 63 4.4 ESE 22 33 12 18 1018.9 1018.9 0.0
19/09:00am 23.2 20.8 16.5 66 4.1 ESE 24 33 13 18 1018.7 1018.7 2.2
19/08:30am 22.3 20.4 16.6 70 3.5 ESE 22 33 12 18 1018.7 1018.7 2.2
19/08:00am 20.4 21.2 17.2 82 1.9 W 9 13 5 7 1018.2 1018.2 2.2
19/07:30am 19.8 20.8 16.8 83 1.8 WNW 7 11 4 6 1018.0 1018.0 2.2
19/07:00am 18.6 19.1 16.6 88 1.2 W 9 11 5 6 1017.5 1017.5 2.2
19/06:30am 17.4 18.6 16.9 97 0.3 W 6 7 3 4 1017.3 1017.3 2.2
19/06:00am 16.7 17.5 16.4 98 0.2 W 7 9 4 5 1017.1 1017.1 2.2
19/05:30am 16.7 17.6 16.2 97 0.3 WNW 6 9 3 5 1016.7 1016.7 2.2
19/05:00am 16.9 17.8 16.6 98 0.2 WNW 7 13 4 7 1016.6 1016.6 2.0
19/04:30am 16.6 18.6 16.0 96 0.4 CALM 0 0 0 0 1016.5 1016.5 2.0
19/04:00am 16.7 17.3 15.9 95 0.5 W 7 9 4 5 1016.5 1016.5 2.0
19/03:30am 16.8 17.1 16.0 95 0.5 W 9 11 5 6 1016.8 1016.8 1.8
19/03:00am 16.8 17.0 15.8 94 0.6 W 9 11 5 6 1016.8 1016.8 1.8
19/02:30am 17.0 17.6 15.9 93 0.6 W 7 9 4 5 1016.8 1016.8 1.8
19/02:00am 18.0 18.6 15.3 84 1.6 SE 6 11 3 6 1016.9 1016.9 1.8
19/01:30am 20.0 19.2 15.0 73 2.9 E 13 19 7 10 1017.2 1017.2 1.8
19/01:00am 20.1 19.4 15.5 75 2.7 E 13 19 7 10 1017.4 1017.4 1.8
19/12:30am 19.9 19.1 15.1 74 2.8 E 13 20 7 11 1017.6 1017.6 1.8
19/12:00am 19.4 19.2 14.6 74 2.8 E 9 11 5 6 1018.0 1018.0 1.8
 
Date/Time
EDT
Temp
°C
App
Temp
°C
Dew
Point
°C
Rel
Hum
%
Delta-T
°C
Wind Press
QNH
hPa
Press
MSL
hPa
Rain since
9am
mm
Dir  Spd
km/h
Gust
km/h
Spd
kts
Gust
kts
18/11:30pm 19.5 19.0 15.0 75 2.6 E 11 15 6 8 1018.1 1018.1 1.8
18/11:00pm 19.5 19.5 15.2 76 2.5 E 9 15 5 8 1018.2 1018.2 1.8
18/10:30pm 18.8 19.5 16.0 84 1.7 ENE 7 9 4 5 1018.3 1018.3 1.8
18/10:03pm 19.3 18.9 16.3 83 1.8 NE 13 20 7 11 1018.6 1018.6 1.8
18/10:00pm 19.2 18.5 16.4 84 1.7 NE 15 20 8 11 1018.6 1018.6 1.8
18/09:50pm 19.1 17.9 16.1 83 1.8 E 17 24 9 13 1018.6 1018.6 1.8
18/09:30pm 17.8 19.1 16.1 90 1.0 ENE 4 9 2 5 1018.6 1018.6 1.0
18/09:00pm 17.7 19.9 16.6 93 0.7 CALM 0 0 0 0 1018.5 1018.5 1.0
18/08:30pm 18.2 19.9 16.2 88 1.2 E 2 7 1 4 1018.1 1018.1 1.0
18/08:00pm 18.5 20.8 16.7 89 1.1 CALM 0 0 0 0 1017.9 1017.9 1.0
18/07:30pm 19.7 19.9 14.7 73 2.9 E 7 13 4 7 1017.7 1017.7 1.0
18/07:00pm 18.7 20.9 16.5 87 1.3 CALM 0 7 0 4 1017.4 1017.4 1.0
18/06:30pm 19.1 20.8 16.3 84 1.7 NNW 2 7 1 4 1017.1 1017.1 1.0
18/06:00pm 19.3 19.6 15.0 76 2.5 NNE 7 13 4 7 1016.8 1016.8 1.0
18/05:50pm 19.0 17.7 14.7 76 2.5 NNE 15 24 8 13 1016.8 1016.8 1.0
18/05:32pm 19.8 18.5 15.9 78 2.3 ESE 17 37 9 20 1016.7 1016.7 0.8
18/05:30pm 20.2 18.7 15.4 74 2.8 E 17 37 9 20 1016.6 1016.6 0.2
18/05:00pm 21.5 20.6 14.9 66 3.9 E 13 17 7 9 1016.6 1016.6 0.0
18/04:30pm 21.7 20.9 15.1 66 3.9 E 13 17 7 9 1016.5 1016.5 0.0
18/04:00pm 21.9 20.1 14.5 63 4.3 ENE 17 22 9 12 1016.5 1016.5 0.0
18/03:30pm 22.3 20.4 14.2 60 4.7 ENE 17 22 9 12 1016.6 1016.6 0.0
18/03:00pm 22.5 20.0 14.1 59 4.9 ENE 20 26 11 14 1016.8 1016.8 0.0
18/02:30pm 22.6 19.2 13.7 57 5.2 ENE 24 30 13 16 1017.0 1017.0 0.0
18/02:00pm 23.2 20.4 15.3 61 4.7 ENE 24 32 13 17 1017.2 1017.2 0.0
18/01:30pm 23.1 19.1 14.1 57 5.3 ENE 28 33 15 18 1017.4 1017.4 0.0

Other Formats:

Comma delimited format used in spreadsheet applications
http://www.bom.gov.au/fwo/IDN60801/IDN60801.94596.axf

JavaScript Object Notation format (JSON) in row-major order
http://www.bom.gov.au/fwo/IDN60801/IDN60801.94596.json